Time;durP1;ratioP1;P1;durP2;ratioP2;P2;SDS_P1;SDS_P2;PMS_P1;PMS_P2;Temp;Humidity;BMP_temperature;BMP_pressure;BME280_temperature;BME280_humidity;BME280_pressure;Samples;Min_cycle;Max_cycle;Signal;HPM_P1;HPM_P2
2023/09/13 00:00:28;;;;;;;3.80;3.50;;;27.30;66.20;28.20;100426.00;;;;5008980;28;20665;-53
2023/09/13 00:02:54;;;;;;;3.83;3.53;;;27.30;66.20;28.20;100437.00;;;;5009057;28;20180;-54
2023/09/13 00:05:20;;;;;;;5.47;5.00;;;27.40;66.10;28.10;100434.00;;;;5009118;28;20210;-55
2023/09/13 00:07:46;;;;;;;4.82;4.43;;;27.00;66.50;28.10;100431.00;;;;5008841;28;20183;-55
2023/09/13 00:10:12;;;;;;;4.00;3.70;;;26.70;67.80;28.00;100434.00;;;;5009166;28;20674;-54
2023/09/13 00:12:37;;;;;;;4.60;3.92;;;26.70;68.50;27.90;100431.00;;;;5009055;28;20184;-55
2023/09/13 00:15:04;;;;;;;4.60;4.15;;;26.80;68.00;27.90;100433.00;;;;5009252;28;20234;-54
2023/09/13 00:17:30;;;;;;;4.70;4.30;;;26.90;67.50;27.90;100419.00;;;;5008021;28;20615;-54
2023/09/13 00:19:58;;;;;;;4.97;4.47;;;26.90;67.50;27.90;100434.00;;;;5008757;28;20314;-53
2023/09/13 00:22:26;;;;;;;4.82;4.43;;;26.80;68.10;27.90;100431.00;;;;5009193;28;20212;-53
2023/09/13 00:24:51;;;;;;;4.70;4.30;;;26.70;68.30;27.90;100436.00;;;;5009132;28;20305;-55
2023/09/13 00:27:17;;;;;;;6.05;5.38;;;26.60;68.30;27.80;100440.00;;;;5008952;28;20190;-53
2023/09/13 00:29:43;;;;;;;5.00;4.50;;;26.70;67.90;27.80;100436.00;;;;5009012;28;20215;-55
2023/09/13 00:32:09;;;;;;;5.70;5.20;;;26.70;68.50;27.80;100443.00;;;;5007477;28;20673;-55
2023/09/13 00:34:34;;;;;;;5.45;4.95;;;26.60;68.30;27.70;100444.00;;;;5008701;28;20184;-54
2023/09/13 00:37:00;;;;;;;5.05;4.65;;;26.50;68.70;27.70;100448.00;;;;5008895;28;20180;-54
2023/09/13 00:39:26;;;;;;;6.47;5.20;;;26.50;69.00;27.70;100453.00;;;;5008785;28;20210;-54
2023/09/13 00:41:52;;;;;;;5.70;5.20;;;26.50;68.70;27.50;100458.00;;;;5009003;28;20553;-54
2023/09/13 00:44:17;;;;;;;4.80;4.40;;;26.50;69.50;27.70;100461.00;;;;5008884;28;20203;-53
2023/09/13 00:46:43;;;;;;;5.40;4.80;;;26.70;69.00;27.70;100464.00;;;;5007070;28;20851;-54
2023/09/13 00:49:09;;;;;;;5.68;4.38;;;26.80;68.50;27.70;100449.00;;;;4991019;28;20207;-55
2023/09/13 00:51:34;;;;;;;4.68;4.10;;;26.90;68.10;27.70;100410.00;;;;5007323;28;20183;-54
2023/09/13 00:54:01;;;;;;;5.10;4.60;;;27.00;67.90;27.70;100456.00;;;;5008798;28;20175;-55
2023/09/13 00:56:27;;;;;;;5.82;5.43;;;27.10;68.30;27.70;100464.00;;;;5008510;28;20184;-54
2023/09/13 00:58:52;;;;;;;5.65;5.22;;;27.10;67.50;27.80;100458.00;;;;5007146;28;20214;-54
2023/09/13 01:01:19;;;;;;;5.68;5.15;;;26.70;67.90;27.70;100460.00;;;;5007291;28;20254;-54
2023/09/13 01:03:44;;;;;;;5.07;4.68;;;26.70;68.60;27.70;100464.00;;;;5007374;28;20762;-54
2023/09/13 01:06:10;;;;;;;6.50;5.10;;;26.80;68.20;27.70;100463.00;;;;5007334;28;20203;-54
2023/09/13 01:08:41;;;;;;;5.53;4.65;;;26.80;68.10;27.70;100458.00;;;;5006783;28;20279;-55
2023/09/13 01:11:08;;;;;;;5.50;4.97;;;26.80;68.20;27.70;100452.00;;;;5007161;28;20180;-55
2023/09/13 01:13:34;;;;;;;6.93;5.05;;;26.70;68.00;27.70;100463.00;;;;4990959;28;20222;-55
2023/09/13 01:16:41;;;;;;;4.47;4.10;;;26.80;68.30;27.70;100460.00;;;;5009757;28;20191;-54
2023/09/13 01:19:37;;;;;;;6.82;6.22;;;26.90;67.90;27.60;100470.00;;;;5002429;28;20237;-54
2023/09/13 01:22:59;;;;;;;6.70;6.20;;;26.70;67.90;27.60;100472.00;;;;5013696;28;20176;-54
2023/09/13 01:26:03;;;;;;;7.13;6.53;;;26.40;69.30;27.50;100483.00;;;;5009691;28;20203;-55
2023/09/13 01:28:40;;;;;;;7.93;7.13;;;26.20;70.30;27.30;100479.00;;;;5007235;28;20207;-54
2023/09/13 01:31:09;;;;;;;6.80;6.22;;;25.80;71.60;27.20;100473.00;;;;5009388;28;20275;-54
2023/09/13 01:33:35;;;;;;;7.70;7.07;;;25.80;71.60;27.20;100471.00;;;;4996278;28;20194;-54
2023/09/13 01:36:01;;;;;;;8.00;7.20;;;25.80;71.50;27.10;100470.00;;;;5013626;28;20179;-61
2023/09/13 01:38:28;;;;;;;8.38;7.47;;;25.90;71.30;27.10;100475.00;;;;5017918;28;20195;-57
2023/09/13 01:41:09;;;;;;;7.18;6.50;;;25.90;70.90;27.10;100476.00;;;;5014149;28;20242;-54
2023/09/13 01:43:35;;;;;;;7.30;6.70;;;26.00;71.20;27.10;100474.00;;;;4979551;28;20176;-54
2023/09/13 01:46:01;;;;;;;6.47;5.90;;;26.00;71.20;27.10;100474.00;;;;4978361;28;20250;-53
2023/09/13 01:48:26;;;;;;;5.10;4.70;;;26.10;70.40;27.10;100471.00;;;;4994128;28;20679;-54
2023/09/13 01:50:53;;;;;;;6.07;5.57;;;26.30;70.30;27.20;100449.00;;;;4994365;28;20175;-54
2023/09/13 01:53:18;;;;;;;6.53;5.93;;;26.30;69.50;27.20;100475.00;;;;5010507;28;20179;-55
2023/09/13 01:55:44;;;;;;;7.25;6.55;;;26.30;69.60;27.20;100481.00;;;;5010770;28;20540;-54
2023/09/13 01:58:10;;;;;;;7.43;6.72;;;26.20;69.60;27.20;100485.00;;;;5011625;28;20172;-53
2023/09/13 02:00:36;;;;;;;7.30;6.70;;;26.20;69.90;27.20;100484.00;;;;5010935;28;20176;-54
2023/09/13 02:03:02;;;;;;;7.50;6.78;;;26.10;70.20;27.20;100486.00;;;;5011722;28;20185;-53
2023/09/13 02:05:28;;;;;;;7.45;6.30;;;26.00;70.40;27.20;100483.00;;;;5011213;28;20282;-53
2023/09/13 02:07:53;;;;;;;9.07;8.18;;;26.00;70.50;27.10;100486.00;;;;5011372;28;20211;-53
2023/09/13 02:10:19;;;;;;;8.00;7.20;;;25.80;71.20;27.10;100487.00;;;;5011691;28;20725;-54
2023/09/13 02:12:45;;;;;;;10.30;9.40;;;25.80;71.60;27.00;100485.00;;;;5011561;28;20175;-53
2023/09/13 02:15:12;;;;;;;12.43;11.13;;;25.60;71.80;26.90;100491.00;;;;5011594;28;20195;-55
2023/09/13 02:17:38;;;;;;;10.60;9.63;;;25.50;72.20;26.80;100486.00;;;;5010961;28;20230;-54
2023/09/13 02:20:04;;;;;;;10.55;9.55;;;25.40;72.60;26.80;100493.00;;;;5011287;28;20219;-54
2023/09/13 02:22:30;;;;;;;10.77;9.73;;;25.30;73.80;26.70;100499.00;;;;5011190;28;20187;-53
2023/09/13 02:24:56;;;;;;;9.65;8.85;;;25.30;73.20;26.70;100497.00;;;;5011180;28;20196;-54
2023/09/13 02:27:22;;;;;;;11.63;10.52;;;25.30;72.90;26.60;100493.00;;;;5011229;28;20740;-54
2023/09/13 02:29:47;;;;;;;11.57;10.38;;;25.20;73.50;26.60;100489.00;;;;4993767;28;20211;-53
2023/09/13 02:32:13;;;;;;;13.23;11.98;;;25.10;73.70;26.50;100494.00;;;;5009929;28;20594;-53
2023/09/13 02:34:39;;;;;;;16.73;15.02;;;25.10;73.80;26.50;100496.00;;;;5009738;28;20202;-54
2023/09/13 02:37:05;;;;;;;14.45;12.95;;;24.80;74.50;26.40;100495.00;;;;5009293;28;20180;-53
2023/09/13 02:39:35;;;;;;;14.05;12.65;;;24.80;75.00;26.30;100500.00;;;;5010863;28;20207;-53
2023/09/13 02:42:05;;;;;;;12.85;11.65;;;25.00;74.30;26.30;100498.00;;;;5009312;28;20271;-53
2023/09/13 02:44:31;;;;;;;16.40;14.90;;;25.10;73.90;26.30;100517.00;;;;5010946;28;20203;-53
2023/09/13 02:46:57;;;;;;;12.75;11.45;;;24.90;74.60;26.20;100505.00;;;;5010702;28;20256;-53
2023/09/13 02:49:24;;;;;;;13.18;11.82;;;24.80;74.90;26.20;100508.00;;;;5009388;28;20246;-54
2023/09/13 02:51:51;;;;;;;16.10;14.60;;;24.80;74.60;26.10;100503.00;;;;5007982;28;20225;-53
2023/09/13 02:54:17;;;;;;;15.95;14.45;;;24.80;74.70;26.10;100516.00;;;;5009677;28;20183;-52
2023/09/13 02:56:43;;;;;;;14.80;13.40;;;24.80;74.50;26.10;100508.00;;;;5010388;28;20197;-54
2023/09/13 02:59:09;;;;;;;14.65;13.25;;;24.80;74.70;26.10;100512.00;;;;5009265;28;20291;-53
2023/09/13 03:01:35;;;;;;;13.40;12.20;;;24.90;74.60;26.10;100508.00;;;;5011052;28;20264;-53
2023/09/13 03:04:00;;;;;;;14.20;12.70;;;24.90;74.60;26.10;100514.00;;;;5011851;28;20227;-53
2023/09/13 03:06:26;;;;;;;15.13;13.60;;;25.00;74.30;26.10;100514.00;;;;5011687;28;20210;-53
2023/09/13 03:08:52;;;;;;;12.48;11.30;;;25.00;74.00;26.10;100511.00;;;;5011670;28;20203;-54
2023/09/13 03:11:21;;;;;;;12.23;11.00;;;25.00;74.50;26.10;100513.00;;;;5010629;28;20683;-53
2023/09/13 03:13:46;;;;;;;12.25;10.88;;;25.00;74.30;26.10;100527.00;;;;5011635;28;20559;-54
2023/09/13 03:16:17;;;;;;;12.45;11.25;;;25.10;74.00;26.10;100522.00;;;;5011666;28;20194;-54
2023/09/13 03:18:44;;;;;;;19.05;16.98;;;25.10;73.80;26.20;100509.00;;;;5011631;28;20216;-55
2023/09/13 03:21:10;;;;;;;15.68;14.15;;;24.90;74.00;26.10;100520.00;;;;5012149;28;20175;-55
2023/09/13 03:23:43;;;;;;;15.27;13.80;;;24.70;75.00;26.10;100522.00;;;;5011844;28;20179;-54
2023/09/13 03:26:15;;;;;;;18.02;16.35;;;24.60;75.50;26.00;100515.00;;;;5011949;28;20219;-54
2023/09/13 03:28:43;;;;;;;21.10;19.00;;;24.50;75.80;25.90;100523.00;;;;5011302;28;20200;-54
2023/09/13 03:31:13;;;;;;;20.75;18.60;;;24.20;76.60;25.80;100520.00;;;;5019504;28;20199;-53
2023/09/13 03:33:39;;;;;;;20.77;18.58;;;24.20;76.80;25.70;100530.00;;;;5014406;28;20822;-54
2023/09/13 03:36:08;;;;;;;16.48;14.88;;;24.10;77.50;25.70;100530.00;;;;5006739;28;20282;-54
2023/09/13 03:38:37;;;;;;;24.60;22.10;;;24.20;77.70;25.60;100516.00;;;;5010726;28;20206;-54
2023/09/13 03:41:04;;;;;;;22.52;20.27;;;23.70;78.50;25.50;100520.00;;;;5011007;28;20270;-54
2023/09/13 03:43:30;;;;;;;22.67;20.40;;;23.80;78.70;25.40;100518.00;;;;5009494;28;20184;-54
2023/09/13 03:45:57;;;;;;;18.10;16.30;;;23.90;78.40;25.40;100521.00;;;;5014902;28;20646;-53
2023/09/13 03:48:23;;;;;;;22.90;20.60;;;24.10;78.00;25.40;100457.00;;;;5017763;28;20200;-53
2023/09/13 03:50:51;;;;;;;21.30;19.20;;;24.10;77.30;25.30;100521.00;;;;5010629;28;20234;-53
2023/09/13 03:53:17;;;;;;;18.85;16.98;;;23.90;78.20;25.30;100526.00;;;;5008509;28;20222;-53
2023/09/13 03:55:44;;;;;;;17.08;15.38;;;24.10;76.80;25.40;100524.00;;;;5010862;28;20662;-52
2023/09/13 03:58:09;;;;;;;17.45;15.75;;;24.30;76.60;25.40;100529.00;;;;5010515;28;20269;-53
2023/09/13 04:00:38;;;;;;;21.35;19.25;;;24.40;76.40;25.50;100532.00;;;;5010350;28;20546;-53
2023/09/13 04:03:04;;;;;;;22.40;20.13;;;24.40;76.10;25.50;100535.00;;;;4992940;28;20670;-53
2023/09/13 04:05:30;;;;;;;20.67;18.50;;;24.40;76.20;25.50;100538.00;;;;5009311;28;20203;-53
2023/09/13 04:07:59;;;;;;;22.58;20.27;;;24.40;76.10;25.50;100529.00;;;;5010301;28;20202;-53
2023/09/13 04:10:25;;;;;;;25.23;22.65;;;24.30;76.20;25.50;100532.00;;;;5010094;28;20175;-52
2023/09/13 04:12:51;;;;;;;20.02;17.98;;;24.10;76.40;25.40;100538.00;;;;5009588;28;20176;-53
2023/09/13 04:15:16;;;;;;;21.02;18.88;;;24.00;77.40;25.40;100523.00;;;;5009365;28;20542;-52
2023/09/13 04:17:42;;;;;;;19.73;17.52;;;24.00;77.00;25.40;100519.00;;;;5009164;28;20641;-54
2023/09/13 04:20:09;;;;;;;19.85;17.95;;;24.20;76.70;25.30;100467.00;;;;5010213;28;20628;-54
2023/09/13 04:22:35;;;;;;;20.45;18.45;;;24.10;77.00;25.40;100525.00;;;;4992137;28;20682;-55
2023/09/13 04:25:01;;;;;;;16.58;14.98;;;24.10;76.70;25.40;100527.00;;;;5009894;28;20207;-54
2023/09/13 04:27:27;;;;;;;19.85;15.45;;;24.30;76.10;25.50;100517.00;;;;5009488;28;20271;-54
2023/09/13 04:29:54;;;;;;;19.92;17.83;;;24.60;75.50;25.50;100523.00;;;;5009956;28;20739;-54
2023/09/13 04:32:21;;;;;;;22.00;19.83;;;24.50;75.00;25.60;100516.00;;;;5008533;28;20211;-53
2023/09/13 04:34:47;;;;;;;22.75;20.48;;;24.60;75.10;25.50;100534.00;;;;5008626;28;20281;-54
2023/09/13 04:37:13;;;;;;;22.08;19.83;;;24.30;76.10;25.50;100524.00;;;;5009499;28;20731;-53
2023/09/13 04:39:39;;;;;;;20.55;18.50;;;24.40;75.90;25.50;100525.00;;;;5009616;28;20257;-54
2023/09/13 04:42:06;;;;;;;22.55;19.92;;;24.30;75.70;25.50;100532.00;;;;5008464;28;20186;-54
2023/09/13 04:44:31;;;;;;;21.23;19.05;;;24.30;75.80;25.50;100530.00;;;;5009712;28;20742;-54
2023/09/13 04:46:57;;;;;;;20.02;18.02;;;24.40;75.60;25.50;100534.00;;;;5009646;28;20265;-54
2023/09/13 04:49:24;;;;;;;20.10;18.10;;;24.40;75.70;25.50;100535.00;;;;5006406;28;20566;-54
2023/09/13 04:51:50;;;;;;;21.17;19.08;;;24.50;75.00;25.50;100529.00;;;;5007896;28;20674;-53
2023/09/13 04:54:16;;;;;;;20.92;18.92;;;24.40;75.30;25.50;100534.00;;;;5007662;28;20183;-54
2023/09/13 04:56:41;;;;;;;20.08;18.08;;;24.50;75.20;25.50;100531.00;;;;5006984;28;20180;-54
2023/09/13 04:59:07;;;;;;;26.10;23.42;;;24.50;75.40;25.50;100532.00;;;;5009221;28;20241;-54
2023/09/13 05:01:33;;;;;;;26.45;23.65;;;24.20;75.90;25.50;100532.00;;;;5007805;28;20172;-53
2023/09/13 05:03:59;;;;;;;25.90;23.27;;;24.20;76.20;25.40;100539.00;;;;5008908;28;20659;-54
2023/09/13 05:06:24;;;;;;;23.42;20.83;;;24.20;76.10;25.40;100541.00;;;;5008840;28;20680;-53
2023/09/13 05:08:52;;;;;;;20.67;18.58;;;24.20;76.50;25.40;100547.00;;;;5006918;28;20207;-53
2023/09/13 05:11:18;;;;;;;23.95;20.70;;;24.40;75.80;25.40;100541.00;;;;5008559;28;20175;-54
2023/09/13 05:13:47;;;;;;;24.38;20.23;;;24.30;76.00;25.50;100552.00;;;;5007238;28;20179;-54
2023/09/13 05:16:19;;;;;;;28.85;25.85;;;24.40;75.60;25.50;100559.00;;;;5008932;28;20175;-53
2023/09/13 05:18:48;;;;;;;27.58;24.67;;;24.30;76.00;25.40;100557.00;;;;5008950;28;20289;-54
2023/09/13 05:21:14;;;;;;;31.48;28.08;;;24.10;76.60;25.40;100561.00;;;;5008745;28;20199;-54
2023/09/13 05:23:39;;;;;;;33.13;29.73;;;24.00;77.00;25.30;100559.00;;;;5008153;28;20543;-54
2023/09/13 05:26:06;;;;;;;35.90;32.20;;;23.70;77.70;25.10;100558.00;;;;5009087;28;20175;-54
2023/09/13 05:28:33;;;;;;;36.88;32.92;;;23.40;78.60;25.00;100564.00;;;;5008708;28;20520;-54
2023/09/13 05:31:00;;;;;;;32.33;28.98;;;23.10;79.70;24.90;100569.00;;;;5006517;28;20172;-54
2023/09/13 05:33:26;;;;;;;34.90;31.13;;;23.20;79.90;24.80;100560.00;;;;5008098;28;20191;-54
2023/09/13 05:35:52;;;;;;;31.95;28.40;;;23.20;79.50;24.80;100573.00;;;;5008507;28;20817;-54
2023/09/13 05:38:18;;;;;;;32.95;29.55;;;23.50;78.70;24.80;100571.00;;;;5008888;28;20282;-53
2023/09/13 05:40:43;;;;;;;30.63;27.63;;;23.60;78.50;24.80;100571.00;;;;4996355;28;20233;-53
2023/09/13 05:43:10;;;;;;;31.15;27.92;;;23.50;78.40;24.80;100577.00;;;;5016973;28;20184;-53
2023/09/13 05:45:36;;;;;;;36.22;32.38;;;23.40;78.40;24.80;100588.00;;;;5008707;28;20809;-53
2023/09/13 05:48:02;;;;;;;34.17;30.67;;;23.10;79.10;24.70;100595.00;;;;5008757;28;20242;-53
2023/09/13 05:50:28;;;;;;;36.92;33.13;;;23.20;79.00;24.60;100600.00;;;;5009123;28;20184;-54
2023/09/13 05:52:54;;;;;;;34.25;30.63;;;22.90;79.20;24.60;100603.00;;;;4991765;28;20710;-53
2023/09/13 05:55:20;;;;;;;33.65;30.23;;;23.00;79.30;24.50;100609.00;;;;5007649;28;20282;-53
2023/09/13 05:57:46;;;;;;;32.53;29.13;;;22.70;80.20;24.40;100612.00;;;;5010557;28;20218;-53
2023/09/13 06:00:13;;;;;;;28.97;25.87;;;22.90;79.80;24.40;100599.00;;;;5011213;28;20203;-53
2023/09/13 06:02:39;;;;;;;31.73;28.53;;;23.00;79.30;24.40;100603.00;;;;5010126;28;20665;-53
2023/09/13 06:05:06;;;;;;;33.38;29.98;;;23.00;78.50;24.40;100616.00;;;;5007860;28;20207;-54
2023/09/13 06:07:32;;;;;;;28.38;25.35;;;23.20;78.50;24.40;100614.00;;;;5007886;28;20205;-53
2023/09/13 06:10:00;;;;;;;31.53;28.17;;;23.20;78.30;24.40;100632.00;;;;5008260;28;20229;-53
2023/09/13 06:12:25;;;;;;;31.83;28.63;;;23.10;78.00;24.40;100629.00;;;;5007801;28;20188;-53
2023/09/13 06:14:55;;;;;;;31.13;28.10;;;22.80;78.60;24.30;100627.00;;;;5007172;28;20249;-53
2023/09/13 06:17:22;;;;;;;23.90;21.38;;;22.80;78.90;24.30;100634.00;;;;5009368;28;20581;-53
2023/09/13 06:19:49;;;;;;;29.30;26.40;;;23.00;78.50;24.30;100631.00;;;;5010519;28;20243;-52
2023/09/13 06:22:17;;;;;;;27.50;24.70;;;23.00;77.90;24.30;100631.00;;;;5011376;28;20245;-53
2023/09/13 06:24:42;;;;;;;27.33;24.53;;;23.00;78.40;24.30;100638.00;;;;5011610;28;20402;-53
2023/09/13 06:27:08;;;;;;;27.07;24.47;;;23.00;78.30;24.30;100642.00;;;;5010398;28;20183;-53
2023/09/13 06:29:34;;;;;;;25.52;22.95;;;22.90;78.60;24.30;100647.00;;;;5010679;28;20787;-52
2023/09/13 06:32:00;;;;;;;23.27;21.00;;;23.00;78.50;24.30;100636.00;;;;5011413;28;20662;-53
2023/09/13 06:34:26;;;;;;;26.85;24.15;;;22.90;78.60;24.20;100645.00;;;;4993849;28;20198;-52
2023/09/13 06:36:52;;;;;;;25.95;23.35;;;22.80;79.20;24.20;100635.00;;;;4994108;28;20221;-53
2023/09/13 06:39:21;;;;;;;26.08;23.38;;;22.80;77.90;24.10;100633.00;;;;5010499;28;20231;-54
2023/09/13 06:41:47;;;;;;;22.23;20.00;;;22.70;78.60;24.10;100640.00;;;;5010312;28;20589;-53
2023/09/13 06:44:13;;;;;;;25.55;22.95;;;22.60;79.20;24.10;100638.00;;;;4993635;28;20214;-53
2023/09/13 06:46:40;;;;;;;24.83;22.33;;;22.60;78.80;24.10;100558.00;;;;5010442;28;20642;-53
2023/09/13 06:49:06;;;;;;;23.83;21.45;;;22.70;78.70;24.10;100651.00;;;;5011589;28;20203;-54
2023/09/13 06:51:32;;;;;;;19.80;17.80;;;22.80;78.50;24.10;100652.00;;;;5011381;28;20194;-53
2023/09/13 06:53:58;;;;;;;24.50;22.07;;;22.90;78.20;24.10;100652.00;;;;5011578;28;20270;-54
2023/09/13 06:56:24;;;;;;;22.02;19.83;;;22.90;78.20;24.10;100652.00;;;;5011733;28;20191;-53
2023/09/13 06:58:49;;;;;;;21.67;19.57;;;22.80;78.40;24.10;100657.00;;;;5011047;28;20207;-54
2023/09/13 07:01:15;;;;;;;23.50;21.33;;;22.80;79.10;24.00;100665.00;;;;5011617;28;20184;-54
2023/09/13 07:03:41;;;;;;;24.90;22.53;;;22.50;79.90;24.00;100666.00;;;;5011090;28;20325;-54
2023/09/13 07:06:07;;;;;;;19.50;17.60;;;22.40;79.90;23.90;100665.00;;;;5011203;28;20274;-54
2023/09/13 07:08:32;;;;;;;21.63;19.40;;;22.60;79.90;24.00;100665.00;;;;5011245;28;20203;-54
2023/09/13 07:10:58;;;;;;;22.50;20.38;;;22.60;79.50;24.00;100681.00;;;;5011114;28;20184;-54
2023/09/13 07:13:25;;;;;;;20.30;18.30;;;22.60;79.40;23.70;100678.00;;;;5011034;28;20179;-54
2023/09/13 07:15:51;;;;;;;23.30;21.00;;;22.60;79.80;23.90;100678.00;;;;5011122;28;20175;-54
2023/09/13 07:18:17;;;;;;;20.43;18.37;;;22.50;79.60;23.90;100682.00;;;;5010672;28;20211;-54
2023/09/13 07:20:43;;;;;;;20.50;18.50;;;22.60;79.90;23.90;100678.00;;;;5010839;28;20183;-53
2023/09/13 07:23:09;;;;;;;17.60;16.00;;;22.60;79.20;23.70;100686.00;;;;5010884;28;20183;-55
2023/09/13 07:25:34;;;;;;;19.48;17.77;;;22.80;79.50;23.70;100693.00;;;;5011047;28;20208;-54
2023/09/13 07:28:00;;;;;;;21.27;19.27;;;22.70;78.80;24.00;100693.00;;;;5010582;28;20187;-54
2023/09/13 07:30:27;;;;;;;19.98;17.95;;;22.40;79.30;24.00;100694.00;;;;5010796;28;20555;-54
2023/09/13 07:32:53;;;;;;;20.03;18.03;;;22.70;78.80;24.00;100692.00;;;;5008964;28;20203;-54
2023/09/13 07:35:20;;;;;;;22.13;19.93;;;22.60;79.10;24.00;100690.00;;;;5010742;28;20592;-54
2023/09/13 07:37:47;;;;;;;18.70;16.73;;;22.60;78.80;24.00;100694.00;;;;5010545;28;20211;-56
2023/09/13 07:40:12;;;;;;;13.90;12.70;;;22.50;79.20;24.00;100700.00;;;;5010921;28;20200;-54
2023/09/13 07:42:38;;;;;;;13.00;11.90;;;23.00;78.10;24.10;100702.00;;;;5010360;28;20750;-53
2023/09/13 07:45:05;;;;;;;11.30;10.30;;;23.30;76.60;24.10;100699.00;;;;5010017;28;20223;-54
2023/09/13 07:47:31;;;;;;;10.88;9.93;;;23.60;75.60;24.20;100700.00;;;;5015797;28;20717;-54
2023/09/13 07:50:00;;;;;;;10.93;9.93;;;23.70;74.70;24.30;100703.00;;;;5018002;28;20258;-54
2023/09/13 07:52:26;;;;;;;9.98;9.07;;;23.80;74.10;24.30;100701.00;;;;5009448;28;20886;-53
2023/09/13 07:54:52;;;;;;;9.02;8.25;;;23.90;73.70;24.40;100707.00;;;;5006932;28;20183;-53
2023/09/13 07:57:18;;;;;;;9.38;8.52;;;24.00;73.60;24.50;100712.00;;;;5008190;28;20211;-53
2023/09/13 07:59:44;;;;;;;9.05;8.35;;;24.10;73.40;24.50;100712.00;;;;5010206;28;20286;-52
2023/09/13 08:02:10;;;;;;;9.32;8.52;;;24.10;73.00;24.60;100723.00;;;;5014694;28;20242;-53
2023/09/13 08:04:35;;;;;;;9.13;8.43;;;24.10;72.80;24.60;100716.00;;;;5018263;28;20558;-53
2023/09/13 08:07:02;;;;;;;9.05;8.25;;;24.20;72.70;24.70;100713.00;;;;5010497;28;20316;-53
2023/09/13 08:09:27;;;;;;;9.13;7.82;;;24.20;72.60;24.70;100719.00;;;;5009342;28;20211;-52
2023/09/13 08:11:53;;;;;;;9.05;8.23;;;24.20;72.50;24.70;100721.00;;;;5009359;28;20175;-52
2023/09/13 08:14:19;;;;;;;9.07;8.30;;;24.20;72.30;24.80;100719.00;;;;5009100;28;20654;-53
2023/09/13 08:16:45;;;;;;;8.45;7.78;;;24.20;72.20;24.80;100735.00;;;;5009252;28;20241;-52
2023/09/13 08:19:11;;;;;;;8.63;7.93;;;24.30;72.20;24.90;100723.00;;;;5009299;28;20242;-53
2023/09/13 08:21:37;;;;;;;8.48;7.78;;;24.30;72.20;24.90;100733.00;;;;5009283;28;20184;-53
2023/09/13 08:24:04;;;;;;;8.32;7.65;;;24.30;72.00;24.90;100742.00;;;;5009034;28;20258;-53
2023/09/13 08:26:31;;;;;;;8.50;7.90;;;24.30;71.90;25.00;100746.00;;;;5008107;28;20693;-53
2023/09/13 08:28:57;;;;;;;8.77;8.07;;;24.40;72.00;25.00;100746.00;;;;5008955;28;20222;-53
2023/09/13 08:31:25;;;;;;;8.52;7.80;;;24.40;71.80;25.00;100761.00;;;;5008261;28;20179;-53
2023/09/13 08:33:52;;;;;;;7.80;7.25;;;24.40;71.60;25.10;100760.00;;;;5005861;28;20262;-53
2023/09/13 08:36:18;;;;;;;7.85;7.20;;;24.40;71.30;25.10;100762.00;;;;5008682;28;20190;-53
2023/09/13 08:38:44;;;;;;;8.65;7.95;;;24.50;71.50;25.10;100758.00;;;;5008550;28;20208;-53
2023/09/13 08:41:12;;;;;;;7.93;7.32;;;24.40;71.30;25.10;100763.00;;;;5008540;28;20267;-53
2023/09/13 08:43:38;;;;;;;7.80;7.20;;;24.50;71.50;25.10;100769.00;;;;5008723;28;20186;-52
2023/09/13 08:46:04;;;;;;;7.63;7.03;;;24.50;71.10;25.20;100768.00;;;;5007970;28;20211;-53
2023/09/13 08:48:30;;;;;;;7.45;6.95;;;24.50;71.10;25.20;100775.00;;;;5007355;28;20222;-53
2023/09/13 08:50:55;;;;;;;7.07;6.57;;;24.60;71.00;25.20;100778.00;;;;4975218;28;20184;-53
2023/09/13 08:53:21;;;;;;;6.97;6.47;;;24.60;71.00;25.20;100775.00;;;;5003597;28;20642;-53
2023/09/13 08:55:47;;;;;;;7.38;6.78;;;24.60;70.90;25.00;100790.00;;;;5007643;28;20194;-52
2023/09/13 08:58:13;;;;;;;7.32;6.72;;;24.60;70.70;25.30;100789.00;;;;4986718;28;20180;-53
2023/09/13 09:00:40;;;;;;;7.25;6.75;;;24.60;70.60;25.30;100794.00;;;;4989440;28;20180;-53
2023/09/13 09:03:07;;;;;;;7.43;6.90;;;24.60;70.40;25.30;100793.00;;;;5004163;28;20175;-53
2023/09/13 09:05:32;;;;;;;6.90;6.40;;;24.70;70.60;25.30;100788.00;;;;5007385;28;20338;-52
2023/09/13 09:07:59;;;;;;;7.20;6.70;;;24.70;70.50;25.30;100781.00;;;;5008595;28;20194;-53
2023/09/13 09:10:25;;;;;;;6.75;6.25;;;24.70;70.50;25.30;100794.00;;;;4991087;28;20261;-52
2023/09/13 09:12:55;;;;;;;6.97;6.43;;;24.70;70.40;25.30;100790.00;;;;5008247;28;20175;-53
2023/09/13 09:15:21;;;;;;;7.32;6.78;;;24.70;70.60;25.40;100801.00;;;;4991601;28;20191;-53
2023/09/13 09:17:48;;;;;;;7.20;6.70;;;24.70;70.30;25.40;100794.00;;;;5005066;28;20195;-52
2023/09/13 09:20:14;;;;;;;6.97;6.45;;;24.70;70.30;25.40;100792.00;;;;5004493;28;20203;-52
2023/09/13 09:22:40;;;;;;;6.43;5.93;;;24.70;70.30;25.40;100804.00;;;;5007661;28;20255;-52
2023/09/13 09:25:10;;;;;;;6.57;6.07;;;24.70;70.30;25.40;100800.00;;;;5008140;28;20204;-52
2023/09/13 09:27:38;;;;;;;7.10;6.50;;;24.70;70.40;25.40;100800.00;;;;5008099;28;20549;-53
2023/09/13 09:30:05;;;;;;;7.10;6.50;;;24.70;70.40;25.40;100813.00;;;;5007544;28;20278;-53
2023/09/13 09:32:31;;;;;;;9.43;8.57;;;24.70;70.20;25.40;100806.00;;;;5006040;28;20183;-53
2023/09/13 09:35:00;;;;;;;10.80;9.73;;;24.70;70.10;25.30;100807.00;;;;5007471;28;20250;-53
2023/09/13 09:37:29;;;;;;;8.95;8.05;;;24.70;69.70;25.20;100810.00;;;;5005638;28;20226;-53
2023/09/13 09:39:55;;;;;;;8.00;7.30;;;24.70;69.70;25.20;100810.00;;;;5006280;28;20206;-53
2023/09/13 09:42:21;;;;;;;11.48;9.65;;;24.60;70.00;25.20;100815.00;;;;5007795;28;20554;-54
2023/09/13 09:44:47;;;;;;;10.93;9.65;;;24.60;70.10;25.20;100817.00;;;;5008534;28;20259;-52
2023/09/13 09:47:13;;;;;;;11.15;10.05;;;24.60;70.40;25.10;100816.00;;;;5007640;28;20600;-53
2023/09/13 09:49:40;;;;;;;11.50;10.38;;;24.60;70.30;25.10;100818.00;;;;5009040;28;20196;-54
2023/09/13 09:52:07;;;;;;;10.70;9.70;;;24.60;70.30;25.00;100817.00;;;;5016756;28;20211;-53
2023/09/13 09:54:34;;;;;;;12.52;10.20;;;24.60;70.20;25.00;100809.00;;;;5014856;28;20176;-53
2023/09/13 09:56:59;;;;;;;11.05;9.90;;;24.60;70.20;25.00;100810.00;;;;5012985;28;20183;-53
2023/09/13 09:59:29;;;;;;;10.65;9.65;;;24.60;70.40;25.00;100816.00;;;;5011694;28;20208;-53
2023/09/13 10:01:58;;;;;;;11.55;10.30;;;24.50;70.20;25.00;100819.00;;;;5012954;28;20186;-54
2023/09/13 10:04:24;;;;;;;11.32;10.23;;;24.50;70.40;24.90;100823.00;;;;5012617;28;20204;-54
2023/09/13 10:07:03;;;;;;;13.88;10.45;;;24.50;70.50;24.90;100825.00;;;;5021448;28;20191;-54
2023/09/13 10:09:46;;;;;;;10.75;9.65;;;24.50;70.90;24.90;100823.00;;;;5014462;28;20318;-53
2023/09/13 10:12:12;;;;;;;11.55;10.45;;;24.40;70.90;24.90;100820.00;;;;5012065;28;20187;-52
2023/09/13 10:14:43;;;;;;;11.07;9.98;;;24.50;70.90;24.80;100826.00;;;;5007236;28;21796;-53
2023/09/13 10:17:09;;;;;;;10.23;9.30;;;24.50;71.00;24.80;100810.00;;;;5011482;28;20241;-52
2023/09/13 10:19:35;;;;;;;11.48;9.77;;;24.40;71.00;24.80;100815.00;;;;5012032;28;20211;-54
2023/09/13 10:22:02;;;;;;;11.15;9.95;;;24.40;70.90;24.90;100817.00;;;;5013756;28;20179;-53
2023/09/13 10:24:47;;;;;;;11.82;10.07;;;24.40;70.70;24.80;100819.00;;;;5015205;28;20238;-53
2023/09/13 10:27:12;;;;;;;11.52;10.32;;;24.40;70.50;24.80;100823.00;;;;5016763;28;20172;-53
2023/09/13 10:29:48;;;;;;;10.02;9.07;;;24.40;70.60;24.80;100824.00;;;;5000774;28;20262;-53
2023/09/13 10:32:15;;;;;;;10.52;8.98;;;24.40;71.50;24.80;100818.00;;;;5012490;28;20694;-53
2023/09/13 10:35:01;;;;;;;9.68;8.60;;;24.40;70.70;24.80;100817.00;;;;5011327;28;20191;-53
2023/09/13 10:37:55;;;;;;;10.18;9.18;;;24.40;70.70;24.80;100806.00;;;;5009975;28;20215;-53